Roy, Montana
Current Conditions -  °F | °C
As of 7:54 PM on Saturday 20 Dec 2014 (Local Time) from KLWT Reporting Station
Scattered Clouds Scattered Clouds  
Wind Chill: 28°   Ceiling: Unl
Heat Index: 37°   Visibility: 10mi
Dew Point: 24°   Wind: 15mph
Humidity: 59%   Direction: 220°SW
Pressure: 29.68"   Gusts: NA
Location:  47.33°N, 108.96°W
Report Text: KLWT 210254Z AUTO 22013KT 10SM SCT075 03/M04 A2968 RMK AO2 SLP071 T00281044 58020
Loading
Personal Weather Stations






























Interactive Weather Map New forecast layout! Learn more

10-Day Weather Forecast

Advertisements
Track Severe Weather on mobile